Time;durP1;ratioP1;P1;durP2;ratioP2;P2;SDS_P1;SDS_P2;PMS_P1;PMS_P2;Temp;Humidity;BMP_temperature;BMP_pressure;BME280_temperature;BME280_humidity;BME280_pressure;Samples;Min_cycle;Max_cycle;Signal;HPM_P1;HPM_P2
2022/05/27 00:01:04;;;;;;;8.75;2.42;;;13.70;99.90;;;;;;5046987;28;20047;-70
2022/05/27 00:03:30;;;;;;;12.13;3.20;;;13.70;99.90;;;;;;5034672;28;20048;-71
2022/05/27 00:05:56;;;;;;;8.30;2.50;;;13.60;99.90;;;;;;5044842;28;20457;-70
2022/05/27 00:08:22;;;;;;;9.32;3.00;;;13.70;99.90;;;;;;5043401;28;20439;-71
2022/05/27 00:10:49;;;;;;;11.95;2.67;;;13.60;99.90;;;;;;5041044;28;20480;-70
2022/05/27 00:13:15;;;;;;;11.23;3.05;;;13.60;99.90;;;;;;5045347;28;20032;-70
2022/05/27 00:15:42;;;;;;;10.82;3.13;;;13.60;99.90;;;;;;5033408;28;20499;-70
2022/05/27 00:18:08;;;;;;;7.15;2.13;;;13.60;99.90;;;;;;5025774;28;20043;-70
2022/05/27 00:20:35;;;;;;;6.40;2.35;;;13.50;99.90;;;;;;5048234;28;20032;-70
2022/05/27 00:23:01;;;;;;;7.18;3.15;;;13.50;99.90;;;;;;5043731;28;20490;-70
2022/05/27 00:25:27;;;;;;;6.78;2.40;;;13.50;99.90;;;;;;5030454;28;20072;-70
2022/05/27 00:27:52;;;;;;;11.15;2.35;;;13.40;99.90;;;;;;5048338;28;20388;-70
2022/05/27 00:30:20;;;;;;;8.32;2.50;;;13.40;99.90;;;;;;5052368;28;20058;-70
2022/05/27 00:32:45;;;;;;;6.82;2.40;;;13.40;99.90;;;;;;5045402;28;20044;-70
2022/05/27 00:35:12;;;;;;;5.93;2.25;;;13.30;99.90;;;;;;5042263;28;20046;-70
2022/05/27 00:37:40;;;;;;;5.90;2.05;;;13.30;99.90;;;;;;5036024;28;20041;-70
2022/05/27 00:40:08;;;;;;;8.18;2.20;;;13.30;99.90;;;;;;5043468;28;20131;-71
2022/05/27 00:42:37;;;;;;;8.10;2.58;;;13.30;99.90;;;;;;5036637;28;20099;-71
2022/05/27 00:45:03;;;;;;;8.30;2.63;;;13.30;99.90;;;;;;5046498;28;20037;-71
2022/05/27 00:47:32;;;;;;;8.10;3.22;;;13.30;99.90;;;;;;5024315;28;20044;-71
2022/05/27 00:50:02;;;;;;;11.65;2.65;;;13.30;99.90;;;;;;5028835;28;20088;-71
2022/05/27 00:52:32;;;;;;;10.90;3.30;;;13.30;99.90;;;;;;5060892;28;20083;-71
2022/05/27 00:55:00;;;;;;;6.95;2.92;;;13.30;99.90;;;;;;5032447;28;20033;-71
2022/05/27 00:57:48;;;;;;;6.82;2.47;;;13.30;99.90;;;;;;5026981;28;20049;-71
2022/05/27 01:00:17;;;;;;;10.20;2.83;;;13.30;99.90;;;;;;5044677;28;20049;-71
2022/05/27 01:02:43;;;;;;;10.57;2.78;;;13.30;99.90;;;;;;5058266;28;20056;-71
2022/05/27 01:05:13;;;;;;;10.73;2.78;;;13.20;99.90;;;;;;5020890;28;20091;-71
2022/05/27 01:07:39;;;;;;;5.75;2.83;;;13.20;99.90;;;;;;5045986;28;20037;-70
2022/05/27 01:10:08;;;;;;;13.25;3.80;;;13.10;99.90;;;;;;5044697;28;20479;-71
2022/05/27 01:12:51;;;;;;;10.25;2.92;;;13.10;99.90;;;;;;5047353;28;20063;-71
2022/05/27 01:15:17;;;;;;;9.50;3.08;;;13.10;99.90;;;;;;5033050;28;20384;-70
2022/05/27 01:18:01;;;;;;;11.60;3.58;;;13.10;99.90;;;;;;5043334;28;20028;-71
2022/05/27 01:20:32;;;;;;;6.88;2.95;;;13.10;99.90;;;;;;5047221;28;20040;-71
2022/05/27 01:23:20;;;;;;;12.95;3.65;;;13.10;99.90;;;;;;5037606;28;20498;-71
2022/05/27 01:26:30;;;;;;;8.52;3.67;;;13.00;99.90;;;;;;5043477;28;20044;-71
2022/05/27 01:29:17;;;;;;;9.05;3.40;;;13.00;99.90;;;;;;5035511;28;20425;-71
2022/05/27 01:31:52;;;;;;;15.20;3.50;;;13.00;99.90;;;;;;5045812;28;20056;-71
2022/05/27 01:34:40;;;;;;;13.80;3.05;;;13.00;99.90;;;;;;5025013;28;20064;-71
2022/05/27 01:37:12;;;;;;;16.63;3.72;;;12.90;99.90;;;;;;5042626;28;20040;-71
2022/05/27 01:39:51;;;;;;;15.38;3.38;;;12.90;99.90;;;;;;5046031;28;20040;-71
2022/05/27 01:42:31;;;;;;;15.07;3.88;;;12.90;99.90;;;;;;5049476;28;20385;-71
2022/05/27 01:45:21;;;;;;;12.80;3.55;;;12.80;99.90;;;;;;5042370;28;20403;-71
2022/05/27 01:48:23;;;;;;;14.45;3.90;;;12.80;99.90;;;;;;5044528;28;20051;-72
2022/05/27 01:50:57;;;;;;;12.10;3.13;;;12.80;99.90;;;;;;5028924;28;20098;-72
2022/05/27 01:53:28;;;;;;;11.98;3.60;;;12.70;99.90;;;;;;5038460;28;20077;-72
2022/05/27 01:56:16;;;;;;;9.43;3.60;;;12.70;99.90;;;;;;5046272;28;20103;-72
2022/05/27 01:59:12;;;;;;;20.75;4.10;;;12.70;99.90;;;;;;5047927;28;20488;-72
2022/05/27 02:01:41;;;;;;;;;;;12.70;99.90;;;;;;5044525;28;20388;-72
2022/05/27 02:04:17;;;;;;;16.05;3.80;;;12.60;99.90;;;;;;5060392;28;19916;-72
2022/05/27 02:06:56;;;;;;;18.70;3.35;;;12.60;99.90;;;;;;5045080;28;20061;-72
2022/05/27 02:09:30;;;;;;;12.90;3.33;;;12.60;99.90;;;;;;5037969;28;20056;-72
2022/05/27 02:12:02;;;;;;;13.57;3.40;;;12.70;99.90;;;;;;5044892;28;20045;-73
2022/05/27 02:14:49;;;;;;;17.60;4.07;;;12.70;99.90;;;;;;5040861;28;20127;-72
2022/05/27 02:17:28;;;;;;;18.20;4.22;;;12.70;99.90;;;;;;5040011;28;20409;-73
2022/05/27 02:20:08;;;;;;;16.90;3.80;;;12.70;99.90;;;;;;5041391;28;20513;-72
2022/05/27 02:22:49;;;;;;;14.98;3.67;;;12.70;99.90;;;;;;5039541;28;20742;-72
2022/05/27 02:25:31;;;;;;;20.35;4.25;;;12.70;99.90;;;;;;5035971;28;20052;-72
2022/05/27 02:28:13;;;;;;;15.10;3.20;;;12.60;99.90;;;;;;5049600;28;20357;-73
2022/05/27 02:30:43;;;;;;;19.58;4.53;;;12.60;99.90;;;;;;5045125;28;20138;-73
2022/05/27 02:36:05;;;;;;;21.23;4.05;;;12.40;99.90;;;;;;5067353;28;20051;-72
2022/05/27 02:38:31;;;;;;;17.80;3.85;;;12.40;99.90;;;;;;5061155;28;20499;-72
2022/05/27 02:41:16;;;;;;;19.05;3.95;;;12.40;99.90;;;;;;5036823;28;20162;-72
2022/05/27 02:43:57;;;;;;;17.05;4.00;;;12.30;99.90;;;;;;5047427;28;20102;-72
2022/05/27 02:46:49;;;;;;;20.30;4.25;;;12.30;99.90;;;;;;5037605;28;20053;-72
2022/05/27 02:49:33;;;;;;;19.17;4.53;;;12.30;99.90;;;;;;5047029;28;20083;-72
2022/05/27 02:52:34;;;;;;;23.17;4.38;;;12.20;99.90;;;;;;5047726;28;20056;-72
2022/05/27 02:55:17;;;;;;;21.25;5.30;;;12.10;99.90;;;;;;5048330;28;20316;-72
2022/05/27 02:57:46;;;;;;;21.70;4.10;;;12.00;99.90;;;;;;5042631;28;20041;-72
2022/05/27 03:00:18;;;;;;;18.42;4.57;;;12.00;99.90;;;;;;5050567;28;20048;-72
2022/05/27 03:02:44;;;;;;;24.02;5.05;;;12.00;99.90;;;;;;5052919;28;20045;-72
2022/05/27 03:05:13;;;;;;;20.73;4.60;;;12.00;99.90;;;;;;5049297;28;20049;-72
2022/05/27 03:08:04;;;;;;;20.10;5.03;;;12.00;99.90;;;;;;5039872;28;20049;-72
2022/05/27 03:10:52;;;;;;;22.83;5.03;;;12.00;99.90;;;;;;5053977;28;20127;-72
2022/05/27 03:13:39;;;;;;;18.35;5.25;;;12.00;99.90;;;;;;5029308;28;20087;-73
2022/05/27 03:16:23;;;;;;;18.17;5.18;;;12.00;99.90;;;;;;5027732;28;20067;-72
2022/05/27 03:19:30;;;;;;;22.13;5.15;;;12.00;99.90;;;;;;5047712;28;20040;-73
2022/05/27 03:22:15;;;;;;;16.60;4.20;;;12.00;99.90;;;;;;5046283;28;20059;-72
2022/05/27 03:25:09;;;;;;;16.67;3.95;;;12.00;99.90;;;;;;5048857;28;20040;-72
2022/05/27 03:27:46;;;;;;;20.95;4.78;;;12.00;99.90;;;;;;5045592;28;20085;-72
2022/05/27 03:30:24;;;;;;;23.30;4.85;;;12.00;99.90;;;;;;5061470;28;20128;-72
2022/05/27 03:33:01;;;;;;;21.60;4.95;;;12.00;99.90;;;;;;5042921;28;20175;-73
2022/05/27 03:35:33;;;;;;;24.15;4.43;;;12.00;99.90;;;;;;5065301;28;20048;-72
2022/05/27 03:38:25;;;;;;;17.48;4.53;;;12.00;99.90;;;;;;5042995;28;20076;-73
2022/05/27 03:40:53;;;;;;;29.80;5.15;;;12.00;99.90;;;;;;5049154;28;20048;-72
2022/05/27 03:43:20;;;;;;;19.63;4.30;;;11.90;99.90;;;;;;5046633;28;20041;-73
2022/05/27 03:45:52;;;;;;;22.15;4.53;;;11.90;99.90;;;;;;5044736;28;20129;-73
2022/05/27 03:48:19;;;;;;;16.05;4.28;;;12.00;99.90;;;;;;5059084;28;20045;-73
2022/05/27 03:50:48;;;;;;;23.48;4.57;;;11.90;99.90;;;;;;5042534;28;20041;-73
2022/05/27 03:53:14;;;;;;;21.40;4.22;;;11.90;99.90;;;;;;5047336;28;20123;-72
2022/05/27 03:55:44;;;;;;;24.15;4.70;;;11.90;99.90;;;;;;5044606;28;20844;-73
2022/05/27 03:58:17;;;;;;;15.75;3.60;;;11.90;99.90;;;;;;5033641;28;20512;-72
2022/05/27 04:00:43;;;;;;;20.85;4.47;;;11.90;99.90;;;;;;5045001;28;20097;-72
2022/05/27 04:03:10;;;;;;;19.55;4.07;;;12.00;99.90;;;;;;5047100;28;20780;-72
2022/05/27 04:05:38;;;;;;;21.63;4.00;;;12.00;99.90;;;;;;5032338;28;20102;-72
2022/05/27 04:08:04;;;;;;;16.70;4.65;;;12.10;99.90;;;;;;5044669;28;20095;-72
2022/05/27 04:10:30;;;;;;;21.30;4.07;;;12.10;99.90;;;;;;5032410;28;20054;-72
2022/05/27 04:12:56;;;;;;;19.13;3.97;;;12.20;99.90;;;;;;5046573;28;20041;-72
2022/05/27 04:15:21;;;;;;;18.55;3.47;;;12.20;99.90;;;;;;5044656;28;20091;-72
2022/05/27 04:17:48;;;;;;;20.48;3.65;;;12.20;99.90;;;;;;5045823;28;20037;-73
2022/05/27 04:20:18;;;;;;;19.33;3.83;;;12.20;99.90;;;;;;5043843;28;20162;-73
2022/05/27 04:22:43;;;;;;;19.33;4.13;;;12.30;99.90;;;;;;5035808;28;20070;-73
2022/05/27 04:25:10;;;;;;;15.27;3.60;;;12.30;99.90;;;;;;5048273;28;20049;-72
2022/05/27 04:27:37;;;;;;;18.02;3.17;;;12.30;99.90;;;;;;5032395;28;20045;-73
2022/05/27 04:30:06;;;;;;;17.00;3.33;;;12.30;99.90;;;;;;5043756;28;20044;-72
2022/05/27 04:32:32;;;;;;;17.73;3.33;;;12.30;99.90;;;;;;5046866;28;20094;-72
2022/05/27 04:34:57;;;;;;;25.48;3.95;;;12.40;99.90;;;;;;5026891;28;20036;-72
2022/05/27 04:37:24;;;;;;;20.85;3.40;;;12.40;99.90;;;;;;5039414;28;20124;-72
2022/05/27 04:39:50;;;;;;;17.30;3.53;;;12.40;99.90;;;;;;5043259;28;20466;-73
2022/05/27 04:42:16;;;;;;;17.60;3.20;;;12.40;99.90;;;;;;5047310;28;20206;-73
2022/05/27 04:44:43;;;;;;;16.73;3.60;;;12.40;99.90;;;;;;5042006;28;20044;-73
2022/05/27 04:47:09;;;;;;;20.67;4.00;;;12.40;99.90;;;;;;5044066;28;20075;-73
2022/05/27 04:49:51;;;;;;;17.80;3.75;;;12.40;99.90;;;;;;5044575;28;20047;-73
2022/05/27 04:52:21;;;;;;;17.52;3.78;;;12.40;99.90;;;;;;5045502;28;20090;-73
2022/05/27 04:54:47;;;;;;;20.25;3.08;;;12.30;99.90;;;;;;5043172;28;20047;-73
2022/05/27 04:57:20;;;;;;;12.23;2.88;;;12.40;99.90;;;;;;5043167;28;20036;-73
2022/05/27 04:59:46;;;;;;;17.42;3.03;;;12.40;99.90;;;;;;5025592;28;20124;-73
2022/05/27 05:02:14;;;;;;;19.88;3.05;;;12.30;99.90;;;;;;5047078;28;20036;-72
2022/05/27 05:04:39;;;;;;;15.60;2.67;;;12.30;99.90;;;;;;5044368;28;20434;-72
2022/05/27 05:07:08;;;;;;;18.65;3.50;;;12.30;99.90;;;;;;5043270;28;20033;-72
2022/05/27 05:09:39;;;;;;;16.40;2.75;;;12.30;99.90;;;;;;5032529;28;20044;-73
2022/05/27 05:12:06;;;;;;;12.10;2.80;;;12.30;99.90;;;;;;5027085;28;20055;-73
2022/05/27 05:14:32;;;;;;;14.80;3.20;;;12.20;99.90;;;;;;5044791;28;20044;-73
2022/05/27 05:16:58;;;;;;;17.48;3.08;;;12.30;99.90;;;;;;5032544;28;20490;-73
2022/05/27 05:19:24;;;;;;;13.90;2.63;;;12.30;99.90;;;;;;5026215;28;20484;-73
2022/05/27 05:21:49;;;;;;;15.43;2.75;;;12.30;99.90;;;;;;5025858;28;20059;-73
2022/05/27 05:24:15;;;;;;;15.23;3.17;;;12.30;99.90;;;;;;5048215;28;20213;-73
2022/05/27 05:26:41;;;;;;;15.65;3.22;;;12.40;99.90;;;;;;5018810;28;20043;-73
2022/05/27 05:29:07;;;;;;;12.60;2.80;;;12.40;99.90;;;;;;5046288;28;20109;-73
2022/05/27 05:31:33;;;;;;;15.95;2.72;;;12.50;99.90;;;;;;5048292;28;20043;-73
2022/05/27 05:33:59;;;;;;;13.50;2.33;;;12.60;99.90;;;;;;5044954;28;20041;-73
2022/05/27 05:36:29;;;;;;;12.90;2.53;;;12.80;99.90;;;;;;5044528;28;20082;-73
2022/05/27 05:38:56;;;;;;;14.13;2.42;;;12.90;99.90;;;;;;5048205;28;20476;-72
2022/05/27 05:41:31;;;;;;;12.15;2.33;;;13.10;99.90;;;;;;5050275;28;20059;-72
2022/05/27 05:43:56;;;;;;;14.38;2.92;;;13.30;99.90;;;;;;5066903;28;20052;-72
2022/05/27 05:46:24;;;;;;;13.95;2.20;;;13.30;99.90;;;;;;5050722;28;20885;-72
2022/05/27 05:48:49;;;;;;;12.98;2.67;;;13.20;99.90;;;;;;5045735;28;20047;-72
2022/05/27 05:51:15;;;;;;;13.60;2.60;;;13.20;99.90;;;;;;5037001;28;20045;-72
2022/05/27 05:53:41;;;;;;;13.43;2.92;;;13.10;99.90;;;;;;5046310;28;20220;-72
2022/05/27 05:56:07;;;;;;;12.20;2.10;;;13.10;99.90;;;;;;5043039;28;20029;-72
2022/05/27 05:58:32;;;;;;;11.38;2.63;;;13.10;99.90;;;;;;5044373;28;20062;-72
2022/05/27 06:00:58;;;;;;;9.63;2.20;;;13.10;99.90;;;;;;5043845;28;20095;-73
2022/05/27 06:03:24;;;;;;;14.45;2.47;;;13.20;99.90;;;;;;5050963;28;20578;-73
2022/05/27 06:05:51;;;;;;;15.60;2.58;;;13.30;99.90;;;;;;5033579;28;20488;-73
2022/05/27 06:08:18;;;;;;;13.70;2.50;;;13.40;99.90;;;;;;5044677;28;20056;-72
2022/05/27 06:10:45;;;;;;;16.50;2.55;;;13.40;99.90;;;;;;5049227;28;20438;-73
2022/05/27 06:13:11;;;;;;;12.68;2.38;;;13.60;99.90;;;;;;5046956;28;20183;-73
2022/05/27 06:15:36;;;;;;;12.77;2.83;;;13.50;99.90;;;;;;5048707;28;20501;-73
2022/05/27 06:18:04;;;;;;;17.23;2.25;;;13.60;99.90;;;;;;5035053;28;20115;-73
2022/05/27 06:20:30;;;;;;;10.63;2.22;;;13.70;99.90;;;;;;5051120;28;20087;-73
2022/05/27 06:22:55;;;;;;;14.02;3.08;;;13.80;99.90;;;;;;5050625;28;20044;-73
2022/05/27 06:25:22;;;;;;;13.27;2.80;;;13.90;99.90;;;;;;5046731;28;20078;-74
2022/05/27 06:27:48;;;;;;;13.45;2.40;;;13.90;99.90;;;;;;5057076;28;20061;-74
2022/05/27 06:35:24;;;;;;;12.55;2.67;;;13.80;99.90;;;;;;5044265;28;20045;-75
2022/05/27 06:37:50;;;;;;;12.23;2.67;;;13.90;99.90;;;;;;5059081;28;20063;-76
2022/05/27 06:40:16;;;;;;;15.48;3.22;;;14.00;99.90;;;;;;5042852;28;20671;-75
2022/05/27 06:42:42;;;;;;;12.88;2.15;;;14.10;99.90;;;;;;5042320;28;20142;-75
2022/05/27 06:45:11;;;;;;;14.95;2.75;;;14.10;99.90;;;;;;5031176;28;20052;-75
2022/05/27 06:47:38;;;;;;;10.05;2.40;;;14.10;99.90;;;;;;5036423;28;20456;-75
2022/05/27 06:50:04;;;;;;;14.70;2.92;;;14.10;99.90;;;;;;5029678;28;20465;-74
2022/05/27 06:52:31;;;;;;;11.77;2.13;;;14.20;99.90;;;;;;5046593;28;20480;-76
2022/05/27 06:54:56;;;;;;;10.73;2.25;;;14.20;99.90;;;;;;5044846;28;20045;-76
2022/05/27 06:57:22;;;;;;;9.38;2.85;;;14.30;99.90;;;;;;5048319;28;20033;-74
2022/05/27 06:59:48;;;;;;;11.35;2.58;;;14.20;99.90;;;;;;5045536;28;20522;-75
2022/05/27 07:02:14;;;;;;;14.30;2.65;;;14.10;99.90;;;;;;5044569;28;20053;-75
2022/05/27 07:04:40;;;;;;;15.52;2.50;;;14.00;99.90;;;;;;5035688;28;20091;-75
2022/05/27 07:07:06;;;;;;;13.50;2.58;;;14.00;99.90;;;;;;5041000;28;20056;-76
2022/05/27 07:09:35;;;;;;;14.30;2.65;;;14.10;99.90;;;;;;5041684;28;20048;-75
2022/05/27 07:12:05;;;;;;;14.32;2.33;;;14.20;99.90;;;;;;5029224;28;20412;-75
2022/05/27 07:14:31;;;;;;;14.13;2.47;;;14.20;99.90;;;;;;5032176;28;20044;-74
2022/05/27 07:16:56;;;;;;;17.30;2.53;;;14.30;99.90;;;;;;5046564;28;20063;-74
2022/05/27 07:19:23;;;;;;;9.25;1.95;;;14.50;99.90;;;;;;5049002;28;20099;-74
2022/05/27 07:21:49;;;;;;;9.80;1.73;;;14.70;99.90;;;;;;5028239;28;20059;-73
2022/05/27 07:24:18;;;;;;;10.32;2.60;;;14.80;99.90;;;;;;5048497;28;20492;-74
2022/05/27 07:26:45;;;;;;;10.57;2.22;;;14.80;99.90;;;;;;5041593;28;20055;-74
2022/05/27 07:29:10;;;;;;;10.55;2.30;;;14.90;99.90;;;;;;5042532;28;20056;-73
2022/05/27 07:31:38;;;;;;;18.35;2.17;;;15.00;99.90;;;;;;5030872;28;20500;-74
2022/05/27 07:34:05;;;;;;;11.82;2.72;;;15.10;99.90;;;;;;5043530;28;20238;-75
2022/05/27 07:36:31;;;;;;;9.38;2.25;;;15.20;99.90;;;;;;5042989;28;20671;-74
2022/05/27 07:38:57;;;;;;;13.63;2.65;;;15.30;99.90;;;;;;5027236;28;20056;-74
2022/05/27 07:41:24;;;;;;;15.85;2.85;;;15.40;99.10;;;;;;5041206;28;20053;-75
2022/05/27 07:43:50;;;;;;;11.48;2.30;;;15.60;97.80;;;;;;5042214;28;20060;-76
2022/05/27 07:46:17;;;;;;;10.38;2.30;;;15.70;96.40;;;;;;5046951;28;20051;-74
2022/05/27 07:48:43;;;;;;;14.10;2.67;;;15.70;96.70;;;;;;5047275;28;20199;-74
2022/05/27 07:51:10;;;;;;;14.07;2.22;;;15.70;98.00;;;;;;5042222;28;20056;-74
2022/05/27 07:53:38;;;;;;;14.93;2.47;;;15.70;97.90;;;;;;5037824;28;20052;-74
2022/05/27 07:56:07;;;;;;;11.60;2.38;;;15.60;95.60;;;;;;5026082;28;20049;-77
2022/05/27 07:58:33;;;;;;;11.35;2.30;;;15.50;96.70;;;;;;5032889;28;20444;-74
2022/05/27 08:01:00;;;;;;;10.85;2.20;;;15.50;97.70;;;;;;5040753;28;20047;-74
2022/05/27 08:03:26;;;;;;;12.02;2.50;;;15.70;97.90;;;;;;5050856;28;20045;-75
2022/05/27 08:05:52;;;;;;;10.93;2.20;;;16.00;97.70;;;;;;5064674;28;20078;-74
2022/05/27 08:08:19;;;;;;;12.00;2.42;;;16.30;98.40;;;;;;5049660;28;20045;-75
2022/05/27 08:10:46;;;;;;;13.45;2.35;;;16.30;97.80;;;;;;5044519;28;20118;-75
2022/05/27 08:13:12;;;;;;;8.07;1.65;;;16.10;95.90;;;;;;5047519;28;20082;-73
2022/05/27 08:15:38;;;;;;;11.00;2.33;;;15.80;93.40;;;;;;5036225;28;20040;-74
2022/05/27 08:18:07;;;;;;;10.13;2.38;;;16.20;94.40;;;;;;5045168;28;20048;-74
2022/05/27 08:20:35;;;;;;;9.38;1.88;;;16.70;94.20;;;;;;5024798;28;20056;-73
2022/05/27 08:23:01;;;;;;;8.23;1.70;;;17.20;94.20;;;;;;5039692;28;20052;-75
2022/05/27 08:25:28;;;;;;;9.18;1.73;;;17.60;92.50;;;;;;5044512;28;20124;-74
2022/05/27 08:27:54;;;;;;;7.53;2.20;;;17.70;90.30;;;;;;5044907;28;20599;-73
2022/05/27 08:30:25;;;;;;;11.30;2.22;;;17.30;88.00;;;;;;5033351;28;20103;-74
2022/05/27 08:32:50;;;;;;;9.73;1.80;;;17.10;89.40;;;;;;5043859;28;20147;-73
2022/05/27 08:38:07;;;;;;;9.02;1.92;;;17.50;86.50;;;;;;5044044;28;20048;-77
2022/05/27 08:40:32;;;;;;;7.82;2.08;;;18.00;83.70;;;;;;5050578;28;20051;-73
2022/05/27 08:43:16;;;;;;;8.35;1.80;;;18.20;81.30;;;;;;5031947;28;20048;-72
2022/05/27 08:46:24;;;;;;;7.43;2.10;;;18.40;71.80;;;;;;5041073;28;20032;-73
2022/05/27 08:48:57;;;;;;;9.57;1.90;;;18.40;71.00;;;;;;5023870;28;20508;-73
2022/05/27 08:51:34;;;;;;;11.75;2.17;;;17.90;74.40;;;;;;5034947;28;20411;-75
2022/05/27 08:54:04;;;;;;;13.75;2.72;;;17.50;73.60;;;;;;5042361;28;20119;-75
2022/05/27 08:59:40;;;;;;;12.65;2.72;;;17.70;79.00;;;;;;5044864;28;20049;-73
2022/05/27 09:02:27;;;;;;;6.55;2.25;;;18.10;75.10;;;;;;5039147;28;20045;-75
2022/05/27 09:05:01;;;;;;;10.73;2.47;;;18.60;77.60;;;;;;5048400;28;20044;-74
2022/05/27 09:07:39;;;;;;;9.43;1.80;;;18.80;74.80;;;;;;5045361;28;20106;-74
2022/05/27 09:10:10;;;;;;;8.60;1.98;;;18.80;69.90;;;;;;5044562;28;20497;-74
2022/05/27 09:12:56;;;;;;;9.23;2.15;;;18.90;74.60;;;;;;5059695;28;20035;-71
2022/05/27 09:15:41;;;;;;;9.70;1.98;;;19.20;70.50;;;;;;5032672;28;20044;-74
2022/05/27 09:18:12;;;;;;;9.38;2.38;;;18.60;66.80;;;;;;5041569;28;20084;-73
2022/05/27 09:20:38;;;;;;;10.55;2.22;;;18.50;70.30;;;;;;5043031;28;20074;-74
2022/05/27 09:23:09;;;;;;;11.88;2.28;;;18.30;68.50;;;;;;5037909;28;20414;-74
2022/05/27 09:25:41;;;;;;;10.13;2.08;;;17.90;69.20;;;;;;5042380;28;20044;-74
2022/05/27 09:28:27;;;;;;;9.75;1.92;;;18.00;74.00;;;;;;5048662;28;20040;-73
2022/05/27 09:30:54;;;;;;;10.82;1.95;;;18.10;69.20;;;;;;5047980;28;20119;-73
2022/05/27 09:33:23;;;;;;;9.23;1.98;;;18.20;70.00;;;;;;5040207;28;20045;-74
2022/05/27 09:36:03;;;;;;;8.48;2.00;;;18.30;71.30;;;;;;5027346;28;20057;-73
2022/05/27 09:38:32;;;;;;;7.15;1.98;;;18.40;71.30;;;;;;5042500;28;20067;-74
2022/05/27 09:41:23;;;;;;;8.40;2.03;;;18.30;71.60;;;;;;5046570;28;20088;-75
2022/05/27 09:44:06;;;;;;;7.40;1.75;;;18.10;72.60;;;;;;5045338;28;20392;-73
2022/05/27 09:46:33;;;;;;;6.05;1.35;;;17.90;71.50;;;;;;5046449;28;20036;-73
2022/05/27 09:48:59;;;;;;;5.88;1.40;;;18.20;71.70;;;;;;5047741;28;20052;-74
2022/05/27 09:51:29;;;;;;;7.80;1.95;;;18.30;71.30;;;;;;5031797;28;20090;-74
2022/05/27 09:54:03;;;;;;;7.75;1.50;;;18.30;71.90;;;;;;5039753;28;20045;-73
2022/05/27 09:56:54;;;;;;;11.93;1.98;;;18.00;70.80;;;;;;5042998;28;20033;-74
2022/05/27 09:59:35;;;;;;;9.90;2.17;;;18.00;73.00;;;;;;5060250;28;20045;-74
2022/05/27 10:02:22;;;;;;;9.15;2.08;;;18.50;70.90;;;;;;5042343;28;20087;-75
2022/05/27 10:05:00;;;;;;;10.02;1.50;;;18.60;67.60;;;;;;5029118;28;20048;-73
2022/05/27 10:07:34;;;;;;;7.85;1.88;;;18.40;69.40;;;;;;5044118;28;20068;-73
2022/05/27 10:10:18;;;;;;;;;;;18.30;67.90;;;;;;5031821;28;20147;-73
2022/05/27 10:12:44;;;;;;;11.43;1.75;;;18.10;71.80;;;;;;5039088;28;19924;-71
2022/05/27 10:15:32;;;;;;;8.98;2.20;;;18.10;73.80;;;;;;5041531;28;20059;-73
2022/05/27 10:18:19;;;;;;;7.45;2.15;;;18.10;71.70;;;;;;5022307;28;20098;-72
2022/05/27 10:21:01;;;;;;;8.13;1.83;;;18.50;67.40;;;;;;5048883;28;20040;-74
2022/05/27 10:23:45;;;;;;;5.80;1.60;;;18.90;68.80;;;;;;5026015;28;20098;-73
2022/05/27 10:26:33;;;;;;;6.80;1.42;;;19.30;63.50;;;;;;5045321;28;20693;-74
2022/05/27 10:29:07;;;;;;;9.80;1.95;;;19.30;63.90;;;;;;5030710;28;20149;-74
2022/05/27 10:31:34;;;;;;;10.23;1.98;;;18.90;64.00;;;;;;5044522;28;20126;-73
2022/05/27 10:34:00;;;;;;;8.07;1.60;;;18.70;64.30;;;;;;5042787;28;20040;-72
2022/05/27 10:36:31;;;;;;;7.95;1.90;;;18.50;67.10;;;;;;5038232;28;20481;-74
2022/05/27 10:39:06;;;;;;;9.07;1.90;;;17.90;65.40;;;;;;5038488;28;20509;-74
2022/05/27 10:41:59;;;;;;;11.57;2.00;;;17.70;65.00;;;;;;5037770;28;20159;-74
2022/05/27 10:44:58;;;;;;;6.97;1.92;;;17.70;68.30;;;;;;5024053;28;20435;-73
2022/05/27 10:48:12;;;;;;;7.20;2.13;;;17.90;68.20;;;;;;5046203;28;20052;-74
2022/05/27 10:50:43;;;;;;;7.95;2.05;;;18.30;69.50;;;;;;4973575;28;20408;-74
2022/05/27 10:53:44;;;;;;;10.45;1.95;;;18.20;68.00;;;;;;5051222;28;20068;-75
2022/05/27 10:56:35;;;;;;;9.50;2.17;;;18.10;68.30;;;;;;5035144;28;20395;-73
2022/05/27 11:03:04;;;;;;;9.03;2.00;;;18.40;66.70;;;;;;5022346;28;20063;-75
2022/05/27 11:05:48;;;;;;;7.07;1.75;;;18.40;67.90;;;;;;5027450;28;20066;-72
2022/05/27 11:08:14;;;;;;;;;;;18.30;68.30;;;;;;5042013;28;20515;-74
2022/05/27 11:10:50;;;;;;;8.82;2.08;;;18.10;64.50;;;;;;5050317;28;19929;-73
2022/05/27 11:16:33;;;;;;;8.98;2.08;;;18.60;65.60;;;;;;5048354;28;20067;-72
2022/05/27 11:19:37;;;;;;;9.68;2.35;;;18.90;66.90;;;;;;5026961;28;20029;-73
2022/05/27 11:22:26;;;;;;;9.90;2.30;;;19.30;68.20;;;;;;5031880;28;20049;-73
2022/05/27 11:25:08;;;;;;;6.72;1.98;;;19.30;65.10;;;;;;5043247;28;20044;-73
2022/05/27 11:27:47;;;;;;;10.95;2.60;;;19.30;63.00;;;;;;5046088;28;20036;-74
2022/05/27 11:30:22;;;;;;;10.23;2.63;;;19.00;65.70;;;;;;5044367;28;20037;-74
2022/05/27 11:33:20;;;;;;;12.90;2.10;;;18.70;66.80;;;;;;5024262;28;20504;-74
2022/05/27 11:36:17;;;;;;;9.75;2.05;;;18.20;66.00;;;;;;5050788;28;20044;-72
2022/05/27 11:39:06;;;;;;;7.93;1.85;;;18.10;65.30;;;;;;5045402;28;20037;-74
2022/05/27 11:41:53;;;;;;;10.57;2.38;;;17.60;64.50;;;;;;5043194;28;20144;-75
2022/05/27 11:44:32;;;;;;;10.73;2.13;;;17.50;66.50;;;;;;5039767;28;20072;-73
2022/05/27 11:47:43;;;;;;;7.95;2.15;;;17.50;68.60;;;;;;5045316;28;20123;-72
2022/05/27 11:50:26;;;;;;;8.57;1.40;;;17.60;67.60;;;;;;5018500;28;20060;-73
2022/05/27 11:53:07;;;;;;;9.30;2.95;;;17.60;68.10;;;;;;5045243;28;20550;-72
2022/05/27 11:55:51;;;;;;;9.57;2.10;;;17.50;66.40;;;;;;5048289;28;20072;-72
2022/05/27 11:58:36;;;;;;;10.73;2.00;;;17.40;67.50;;;;;;5025030;28;20543;-74
2022/05/27 12:01:19;;;;;;;8.35;1.92;;;17.30;68.20;;;;;;5046179;28;20408;-73
2022/05/27 12:04:00;;;;;;;9.25;2.28;;;17.00;69.50;;;;;;5045168;28;20438;-73
2022/05/27 12:06:38;;;;;;;11.80;2.30;;;17.00;69.30;;;;;;5043305;28;20503;-72
2022/05/27 12:09:28;;;;;;;13.20;2.53;;;17.20;70.10;;;;;;5039048;28;20076;-73
2022/05/27 12:12:11;;;;;;;10.57;2.15;;;17.60;70.80;;;;;;5030130;28;20106;-73
2022/05/27 12:15:09;;;;;;;12.07;2.38;;;18.40;69.10;;;;;;5029958;28;20501;-74
2022/05/27 12:17:45;;;;;;;6.47;2.20;;;18.60;63.70;;;;;;5035347;28;20053;-73
2022/05/27 12:20:18;;;;;;;10.27;2.28;;;18.00;63.80;;;;;;5019137;28;20061;-73
2022/05/27 12:22:48;;;;;;;8.30;2.13;;;17.50;66.00;;;;;;5041239;28;20043;-73
2022/05/27 12:25:19;;;;;;;12.40;2.63;;;17.30;69.30;;;;;;5040755;28;20051;-72
2022/05/27 12:27:46;;;;;;;10.07;2.15;;;17.70;71.10;;;;;;5025345;28;20037;-74
2022/05/27 12:30:15;;;;;;;10.90;2.00;;;18.00;71.50;;;;;;5040543;28;20034;-73
2022/05/27 12:32:44;;;;;;;9.50;2.35;;;18.00;68.50;;;;;;5042340;28;20413;-71
2022/05/27 12:35:21;;;;;;;13.02;2.47;;;17.50;67.30;;;;;;5049753;28;20041;-72
2022/05/27 12:37:51;;;;;;;11.02;2.20;;;17.20;69.90;;;;;;5044487;28;20045;-72
2022/05/27 12:40:49;;;;;;;12.80;2.80;;;17.10;70.00;;;;;;5032913;28;20037;-73
2022/05/27 12:43:26;;;;;;;16.05;2.90;;;17.20;71.90;;;;;;5040026;28;20056;-73
2022/05/27 12:45:53;;;;;;;12.05;1.90;;;16.90;71.20;;;;;;5029799;28;20045;-72
2022/05/27 12:48:34;;;;;;;8.40;1.80;;;16.70;70.10;;;;;;5043971;28;20476;-73
2022/05/27 12:51:06;;;;;;;10.38;2.40;;;16.50;70.90;;;;;;5030651;28;20060;-72
2022/05/27 12:53:42;;;;;;;9.80;2.03;;;16.30;71.50;;;;;;5041102;28;20125;-73
2022/05/27 13:02:14;;;;;;;10.43;2.15;;;16.00;73.50;;;;;;5041166;28;20049;-74
2022/05/27 13:04:45;;;;;;;10.98;2.08;;;16.20;75.00;;;;;;5035922;28;20037;-72
2022/05/27 13:07:11;;;;;;;12.82;2.38;;;16.30;73.40;;;;;;5037279;28;20080;-73
2022/05/27 13:09:46;;;;;;;9.18;2.10;;;16.30;75.50;;;;;;5035825;28;20041;-73
2022/05/27 13:12:47;;;;;;;10.90;2.05;;;16.50;77.10;;;;;;5028555;28;20099;-72
2022/05/27 13:15:20;;;;;;;10.88;2.33;;;16.50;73.60;;;;;;5040696;28;20049;-72
2022/05/27 13:18:05;;;;;;;15.15;2.95;;;16.40;73.30;;;;;;5040401;28;20143;-72
2022/05/27 13:20:53;;;;;;;;;;;16.30;74.40;;;;;;5037468;28;20057;-72
2022/05/27 13:23:23;;;;;;;11.82;2.75;;;16.30;75.70;;;;;;5022493;28;20004;-68
2022/05/27 13:26:14;;;;;;;14.13;2.17;;;16.20;75.10;;;;;;5034776;28;20112;-68
2022/05/27 13:28:51;;;;;;;10.57;2.08;;;16.10;74.60;;;;;;5038618;28;20037;-70
2022/05/27 13:31:27;;;;;;;10.18;2.20;;;16.00;74.30;;;;;;5046526;28;20074;-68
2022/05/27 13:34:00;;;;;;;11.98;2.70;;;16.10;75.70;;;;;;5042113;28;20075;-68
2022/05/27 13:36:39;;;;;;;12.38;2.13;;;16.10;75.40;;;;;;5041890;28;20052;-68
2022/05/27 13:39:11;;;;;;;9.98;2.00;;;16.20;76.50;;;;;;5041573;28;20562;-70
2022/05/27 13:41:41;;;;;;;8.50;2.03;;;16.40;75.30;;;;;;5041816;28;20055;-72